sensor_id;sensor_type;location;lat;lon;timestamp;temperature;humidity
15386;DHT22;7791;47.246;9.648;2023-07-02T00:02:41;18.00;99.90
15386;DHT22;7791;47.246;9.648;2023-07-02T00:05:26;18.10;99.90
15386;DHT22;7791;47.246;9.648;2023-07-02T00:08:06;18.10;99.90
15386;DHT22;7791;47.246;9.648;2023-07-02T00:10:43;18.00;99.90
15386;DHT22;7791;47.246;9.648;2023-07-02T00:13:18;18.10;99.90
15386;DHT22;7791;47.246;9.648;2023-07-02T00:18:51;18.10;99.90
15386;DHT22;7791;47.246;9.648;2023-07-02T00:21:23;17.90;99.90
15386;DHT22;7791;47.246;9.648;2023-07-02T00:24:05;17.90;99.90
15386;DHT22;7791;47.246;9.648;2023-07-02T00:27:04;18.00;99.90
15386;DHT22;7791;47.246;9.648;2023-07-02T00:29:56;18.00;99.90
15386;DHT22;7791;47.246;9.648;2023-07-02T00:32:36;17.90;99.90
15386;DHT22;7791;47.246;9.648;2023-07-02T00:35:13;17.90;99.90
15386;DHT22;7791;47.246;9.648;2023-07-02T00:38:02;17.90;99.90
15386;DHT22;7791;47.246;9.648;2023-07-02T00:40:41;17.90;99.90
15386;DHT22;7791;47.246;9.648;2023-07-02T00:43:09;18.00;99.90
15386;DHT22;7791;47.246;9.648;2023-07-02T00:45:40;17.90;99.90
15386;DHT22;7791;47.246;9.648;2023-07-02T00:48:38;18.00;99.90
15386;DHT22;7791;47.246;9.648;2023-07-02T00:51:03;18.00;99.90
15386;DHT22;7791;47.246;9.648;2023-07-02T00:53:29;18.00;99.90
15386;DHT22;7791;47.246;9.648;2023-07-02T00:56:08;18.00;99.90
15386;DHT22;7791;47.246;9.648;2023-07-02T00:58:54;18.00;99.90
15386;DHT22;7791;47.246;9.648;2023-07-02T01:01:30;18.00;99.90
15386;DHT22;7791;47.246;9.648;2023-07-02T01:04:13;17.90;99.90
15386;DHT22;7791;47.246;9.648;2023-07-02T01:06:51;17.90;99.90
15386;DHT22;7791;47.246;9.648;2023-07-02T01:09:26;17.90;99.90
15386;DHT22;7791;47.246;9.648;2023-07-02T01:12:06;17.90;99.90
15386;DHT22;7791;47.246;9.648;2023-07-02T01:14:48;17.90;99.90
15386;DHT22;7791;47.246;9.648;2023-07-02T01:17:20;17.90;99.90
15386;DHT22;7791;47.246;9.648;2023-07-02T01:23:12;17.80;99.90
15386;DHT22;7791;47.246;9.648;2023-07-02T01:26:03;17.80;99.90
15386;DHT22;7791;47.246;9.648;2023-07-02T01:28:46;17.80;99.90
15386;DHT22;7791;47.246;9.648;2023-07-02T01:31:19;17.80;99.90
15386;DHT22;7791;47.246;9.648;2023-07-02T01:34:04;17.70;99.90
15386;DHT22;7791;47.246;9.648;2023-07-02T01:36:39;17.60;99.90
15386;DHT22;7791;47.246;9.648;2023-07-02T01:39:11;17.60;99.90
15386;DHT22;7791;47.246;9.648;2023-07-02T01:42:06;17.60;99.90
15386;DHT22;7791;47.246;9.648;2023-07-02T01:44:46;17.70;99.90
15386;DHT22;7791;47.246;9.648;2023-07-02T01:47:37;17.60;99.90
15386;DHT22;7791;47.246;9.648;2023-07-02T01:50:06;17.50;99.90
15386;DHT22;7791;47.246;9.648;2023-07-02T01:52:57;17.50;99.90
15386;DHT22;7791;47.246;9.648;2023-07-02T01:58:28;17.50;99.90
15386;DHT22;7791;47.246;9.648;2023-07-02T02:01:10;17.60;99.90
15386;DHT22;7791;47.246;9.648;2023-07-02T02:04:00;17.60;99.90
15386;DHT22;7791;47.246;9.648;2023-07-02T02:06:39;17.60;99.90
15386;DHT22;7791;47.246;9.648;2023-07-02T02:09:23;17.60;99.90
15386;DHT22;7791;47.246;9.648;2023-07-02T02:11:56;17.40;99.90
15386;DHT22;7791;47.246;9.648;2023-07-02T02:14:31;17.30;99.90
15386;DHT22;7791;47.246;9.648;2023-07-02T02:17:08;17.10;99.90
15386;DHT22;7791;47.246;9.648;2023-07-02T02:22:44;17.10;99.90
15386;DHT22;7791;47.246;9.648;2023-07-02T02:28:11;17.40;99.90
15386;DHT22;7791;47.246;9.648;2023-07-02T02:36:49;17.20;99.90
15386;DHT22;7791;47.246;9.648;2023-07-02T02:39:32;17.30;99.90
15386;DHT22;7791;47.246;9.648;2023-07-02T02:42:10;17.40;99.90
15386;DHT22;7791;47.246;9.648;2023-07-02T02:44:51;17.50;99.90
15386;DHT22;7791;47.246;9.648;2023-07-02T02:47:38;17.50;99.90
15386;DHT22;7791;47.246;9.648;2023-07-02T02:50:12;17.20;99.90
15386;DHT22;7791;47.246;9.648;2023-07-02T02:53:07;17.00;99.90
15386;DHT22;7791;47.246;9.648;2023-07-02T02:55:48;17.00;99.90
15386;DHT22;7791;47.246;9.648;2023-07-02T02:58:26;16.90;99.90
15386;DHT22;7791;47.246;9.648;2023-07-02T03:00:59;16.80;99.90
15386;DHT22;7791;47.246;9.648;2023-07-02T03:03:45;16.70;99.90
15386;DHT22;7791;47.246;9.648;2023-07-02T03:06:21;16.80;99.90
15386;DHT22;7791;47.246;9.648;2023-07-02T03:09:00;16.90;99.90
15386;DHT22;7791;47.246;9.648;2023-07-02T03:11:47;16.90;99.90
15386;DHT22;7791;47.246;9.648;2023-07-02T03:14:20;16.80;99.90
15386;DHT22;7791;47.246;9.648;2023-07-02T03:19:48;17.00;99.90
15386;DHT22;7791;47.246;9.648;2023-07-02T03:22:24;17.00;99.90
15386;DHT22;7791;47.246;9.648;2023-07-02T03:25:13;16.70;99.90
15386;DHT22;7791;47.246;9.648;2023-07-02T03:27:49;16.60;99.90
15386;DHT22;7791;47.246;9.648;2023-07-02T03:30:27;16.70;99.90
15386;DHT22;7791;47.246;9.648;2023-07-02T03:33:05;16.80;99.90
15386;DHT22;7791;47.246;9.648;2023-07-02T03:35:38;16.80;99.90
15386;DHT22;7791;47.246;9.648;2023-07-02T03:40:54;16.80;99.90
15386;DHT22;7791;47.246;9.648;2023-07-02T03:43:26;16.80;99.90
15386;DHT22;7791;47.246;9.648;2023-07-02T03:46:02;16.80;99.90
15386;DHT22;7791;47.246;9.648;2023-07-02T03:48:49;16.90;99.90
15386;DHT22;7791;47.246;9.648;2023-07-02T03:54:12;16.90;99.90
15386;DHT22;7791;47.246;9.648;2023-07-02T03:56:47;16.70;99.90
15386;DHT22;7791;47.246;9.648;2023-07-02T03:59:26;16.70;99.90
15386;DHT22;7791;47.246;9.648;2023-07-02T04:02:22;16.70;99.90
15386;DHT22;7791;47.246;9.648;2023-07-02T04:04:56;16.90;99.90
15386;DHT22;7791;47.246;9.648;2023-07-02T04:07:38;17.10;99.90
15386;DHT22;7791;47.246;9.648;2023-07-02T04:10:11;17.10;99.90
15386;DHT22;7791;47.246;9.648;2023-07-02T04:12:58;17.10;99.90
15386;DHT22;7791;47.246;9.648;2023-07-02T04:15:49;17.20;99.90
15386;DHT22;7791;47.246;9.648;2023-07-02T04:18:26;17.20;99.90
15386;DHT22;7791;47.246;9.648;2023-07-02T04:21:12;17.20;99.90
15386;DHT22;7791;47.246;9.648;2023-07-02T04:23:45;17.00;99.90
15386;DHT22;7791;47.246;9.648;2023-07-02T04:29:12;16.90;99.90
15386;DHT22;7791;47.246;9.648;2023-07-02T04:31:50;16.80;99.90
15386;DHT22;7791;47.246;9.648;2023-07-02T04:34:22;16.70;99.90
15386;DHT22;7791;47.246;9.648;2023-07-02T04:37:14;16.60;99.90
15386;DHT22;7791;47.246;9.648;2023-07-02T04:39:56;16.50;99.90
15386;DHT22;7791;47.246;9.648;2023-07-02T04:42:31;16.60;99.90
15386;DHT22;7791;47.246;9.648;2023-07-02T04:45:03;16.60;99.90
15386;DHT22;7791;47.246;9.648;2023-07-02T04:47:40;16.50;99.90
15386;DHT22;7791;47.246;9.648;2023-07-02T04:53:05;16.40;99.90
15386;DHT22;7791;47.246;9.648;2023-07-02T04:55:41;16.40;99.90
15386;DHT22;7791;47.246;9.648;2023-07-02T04:58:14;16.60;99.90
15386;DHT22;7791;47.246;9.648;2023-07-02T05:00:49;16.60;99.90
15386;DHT22;7791;47.246;9.648;2023-07-02T05:03:36;16.60;99.90
15386;DHT22;7791;47.246;9.648;2023-07-02T05:06:04;16.50;99.90
15386;DHT22;7791;47.246;9.648;2023-07-02T05:08:40;16.50;99.90
15386;DHT22;7791;47.246;9.648;2023-07-02T05:11:12;16.50;99.90
15386;DHT22;7791;47.246;9.648;2023-07-02T05:13:44;16.50;99.90
15386;DHT22;7791;47.246;9.648;2023-07-02T05:19:08;16.60;99.90
15386;DHT22;7791;47.246;9.648;2023-07-02T05:21:43;16.80;99.90
15386;DHT22;7791;47.246;9.648;2023-07-02T05:24:20;16.60;99.90
15386;DHT22;7791;47.246;9.648;2023-07-02T05:26:59;16.50;99.90
15386;DHT22;7791;47.246;9.648;2023-07-02T05:29:32;16.60;99.90
15386;DHT22;7791;47.246;9.648;2023-07-02T05:32:08;16.60;99.90
15386;DHT22;7791;47.246;9.648;2023-07-02T05:37:40;16.70;99.90
15386;DHT22;7791;47.246;9.648;2023-07-02T05:40:28;16.70;99.90
15386;DHT22;7791;47.246;9.648;2023-07-02T05:43:14;16.80;99.90
15386;DHT22;7791;47.246;9.648;2023-07-02T05:46:01;16.90;99.90
15386;DHT22;7791;47.246;9.648;2023-07-02T05:48:45;16.90;99.90
15386;DHT22;7791;47.246;9.648;2023-07-02T05:51:24;16.80;99.90
15386;DHT22;7791;47.246;9.648;2023-07-02T05:53:59;16.70;99.90
15386;DHT22;7791;47.246;9.648;2023-07-02T05:59:32;16.90;99.90
15386;DHT22;7791;47.246;9.648;2023-07-02T06:02:29;17.30;99.90
15386;DHT22;7791;47.246;9.648;2023-07-02T06:05:02;17.60;99.90
15386;DHT22;7791;47.246;9.648;2023-07-02T06:07:44;17.80;99.90
15386;DHT22;7791;47.246;9.648;2023-07-02T06:10:18;18.10;99.90
15386;DHT22;7791;47.246;9.648;2023-07-02T06:13:09;18.30;99.90
15386;DHT22;7791;47.246;9.648;2023-07-02T06:15:50;18.50;99.90
15386;DHT22;7791;47.246;9.648;2023-07-02T06:18:23;18.70;99.90
15386;DHT22;7791;47.246;9.648;2023-07-02T06:20:58;18.60;99.90
15386;DHT22;7791;47.246;9.648;2023-07-02T06:23:49;18.90;99.90
15386;DHT22;7791;47.246;9.648;2023-07-02T06:26:28;19.10;99.90
15386;DHT22;7791;47.246;9.648;2023-07-02T06:29:05;19.30;99.90
15386;DHT22;7791;47.246;9.648;2023-07-02T06:31:40;19.50;99.90
15386;DHT22;7791;47.246;9.648;2023-07-02T06:34:19;19.40;99.90
15386;DHT22;7791;47.246;9.648;2023-07-02T06:36:54;19.20;99.90
15386;DHT22;7791;47.246;9.648;2023-07-02T06:39:27;18.90;99.90
15386;DHT22;7791;47.246;9.648;2023-07-02T06:42:00;18.70;99.90
15386;DHT22;7791;47.246;9.648;2023-07-02T06:44:40;18.70;99.90
15386;DHT22;7791;47.246;9.648;2023-07-02T06:47:25;18.80;99.90
15386;DHT22;7791;47.246;9.648;2023-07-02T06:50:01;18.50;99.90
15386;DHT22;7791;47.246;9.648;2023-07-02T06:52:52;18.20;99.90
15386;DHT22;7791;47.246;9.648;2023-07-02T06:55:28;18.40;99.90
15386;DHT22;7791;47.246;9.648;2023-07-02T06:58:02;19.00;99.90
15386;DHT22;7791;47.246;9.648;2023-07-02T07:00:39;19.40;99.90
15386;DHT22;7791;47.246;9.648;2023-07-02T07:03:10;19.70;99.90
15386;DHT22;7791;47.246;9.648;2023-07-02T07:05:48;20.30;99.90
15386;DHT22;7791;47.246;9.648;2023-07-02T07:08:21;20.70;99.90
15386;DHT22;7791;47.246;9.648;2023-07-02T07:11:05;20.70;99.90
15386;DHT22;7791;47.246;9.648;2023-07-02T07:13:40;20.90;99.90
15386;DHT22;7791;47.246;9.648;2023-07-02T07:19:06;21.40;99.90
15386;DHT22;7791;47.246;9.648;2023-07-02T07:21:56;21.10;99.90
15386;DHT22;7791;47.246;9.648;2023-07-02T07:24:35;20.80;99.90
15386;DHT22;7791;47.246;9.648;2023-07-02T07:27:11;20.60;99.90
15386;DHT22;7791;47.246;9.648;2023-07-02T07:29:54;20.20;99.90
15386;DHT22;7791;47.246;9.648;2023-07-02T07:32:44;19.70;99.90
15386;DHT22;7791;47.246;9.648;2023-07-02T07:35:17;19.30;99.90
15386;DHT22;7791;47.246;9.648;2023-07-02T07:37:52;19.10;99.90
15386;DHT22;7791;47.246;9.648;2023-07-02T07:40:23;19.00;99.90
15386;DHT22;7791;47.246;9.648;2023-07-02T07:43:19;18.90;99.90
15386;DHT22;7791;47.246;9.648;2023-07-02T07:45:54;18.70;99.90
15386;DHT22;7791;47.246;9.648;2023-07-02T07:48:34;18.50;99.90
15386;DHT22;7791;47.246;9.648;2023-07-02T07:51:25;18.40;99.90
15386;DHT22;7791;47.246;9.648;2023-07-02T07:54:01;18.40;99.90
15386;DHT22;7791;47.246;9.648;2023-07-02T07:56:44;18.50;99.90
15386;DHT22;7791;47.246;9.648;2023-07-02T07:59:24;18.70;99.90
15386;DHT22;7791;47.246;9.648;2023-07-02T08:02:09;19.10;99.90
15386;DHT22;7791;47.246;9.648;2023-07-02T08:05:00;19.30;99.90
15386;DHT22;7791;47.246;9.648;2023-07-02T08:07:35;19.70;99.90
15386;DHT22;7791;47.246;9.648;2023-07-02T08:10:06;20.20;99.90
15386;DHT22;7791;47.246;9.648;2023-07-02T08:12:39;20.50;99.90
15386;DHT22;7791;47.246;9.648;2023-07-02T08:15:21;20.60;99.90
15386;DHT22;7791;47.246;9.648;2023-07-02T08:17:59;20.50;99.90
15386;DHT22;7791;47.246;9.648;2023-07-02T08:20:47;20.50;99.90
15386;DHT22;7791;47.246;9.648;2023-07-02T08:23:27;20.20;99.90
15386;DHT22;7791;47.246;9.648;2023-07-02T08:26:10;20.00;99.90
15386;DHT22;7791;47.246;9.648;2023-07-02T08:28:42;19.80;99.90
15386;DHT22;7791;47.246;9.648;2023-07-02T08:31:25;19.70;99.90
15386;DHT22;7791;47.246;9.648;2023-07-02T08:33:52;19.70;99.90
15386;DHT22;7791;47.246;9.648;2023-07-02T08:36:35;19.50;99.90
15386;DHT22;7791;47.246;9.648;2023-07-02T08:39:16;19.50;99.90
15386;DHT22;7791;47.246;9.648;2023-07-02T08:42:11;19.50;99.90
15386;DHT22;7791;47.246;9.648;2023-07-02T08:44:52;19.80;99.90
15386;DHT22;7791;47.246;9.648;2023-07-02T08:47:32;20.20;99.90
15386;DHT22;7791;47.246;9.648;2023-07-02T08:50:13;20.70;99.90
15386;DHT22;7791;47.246;9.648;2023-07-02T08:52:52;20.90;99.90
15386;DHT22;7791;47.246;9.648;2023-07-02T08:55:36;21.40;99.90
15386;DHT22;7791;47.246;9.648;2023-07-02T08:58:17;21.80;99.90
15386;DHT22;7791;47.246;9.648;2023-07-02T09:01:06;22.10;99.90
15386;DHT22;7791;47.246;9.648;2023-07-02T09:03:40;23.40;99.90
15386;DHT22;7791;47.246;9.648;2023-07-02T09:06:29;24.30;99.90
15386;DHT22;7791;47.246;9.648;2023-07-02T09:09:14;24.90;99.90
15386;DHT22;7791;47.246;9.648;2023-07-02T09:14:55;25.20;99.90
15386;DHT22;7791;47.246;9.648;2023-07-02T09:17:34;24.90;99.90
15386;DHT22;7791;47.246;9.648;2023-07-02T09:20:17;24.30;99.90
15386;DHT22;7791;47.246;9.648;2023-07-02T09:23:01;23.50;99.90
15386;DHT22;7791;47.246;9.648;2023-07-02T09:25:50;23.10;99.90
15386;DHT22;7791;47.246;9.648;2023-07-02T09:28:23;22.90;99.90
15386;DHT22;7791;47.246;9.648;2023-07-02T09:31:18;23.30;99.90
15386;DHT22;7791;47.246;9.648;2023-07-02T09:34:03;23.70;99.90
15386;DHT22;7791;47.246;9.648;2023-07-02T09:36:48;24.10;99.90
15386;DHT22;7791;47.246;9.648;2023-07-02T09:39:19;24.10;99.90
15386;DHT22;7791;47.246;9.648;2023-07-02T09:42:05;24.40;99.90
15386;DHT22;7791;47.246;9.648;2023-07-02T09:44:39;24.70;99.90
15386;DHT22;7791;47.246;9.648;2023-07-02T09:47:15;25.30;99.90
15386;DHT22;7791;47.246;9.648;2023-07-02T09:49:55;25.50;99.90
15386;DHT22;7791;47.246;9.648;2023-07-02T09:52:34;26.20;99.90
15386;DHT22;7791;47.246;9.648;2023-07-02T09:55:03;26.60;99.90
15386;DHT22;7791;47.246;9.648;2023-07-02T09:57:46;26.30;99.90
15386;DHT22;7791;47.246;9.648;2023-07-02T10:00:18;25.70;99.90
15386;DHT22;7791;47.246;9.648;2023-07-02T10:03:09;25.20;99.90
15386;DHT22;7791;47.246;9.648;2023-07-02T10:06:19;25.30;99.90
15386;DHT22;7791;47.246;9.648;2023-07-02T10:09:18;24.80;99.90
15386;DHT22;7791;47.246;9.648;2023-07-02T10:11:54;24.20;99.90
15386;DHT22;7791;47.246;9.648;2023-07-02T10:14:37;23.90;99.90
15386;DHT22;7791;47.246;9.648;2023-07-02T10:20:38;23.90;99.90
15386;DHT22;7791;47.246;9.648;2023-07-02T10:23:34;23.70;99.90
15386;DHT22;7791;47.246;9.648;2023-07-02T10:26:15;23.60;99.90
15386;DHT22;7791;47.246;9.648;2023-07-02T10:28:58;23.80;99.90
15386;DHT22;7791;47.246;9.648;2023-07-02T10:31:41;24.10;99.90
15386;DHT22;7791;47.246;9.648;2023-07-02T10:34:32;24.10;99.90
15386;DHT22;7791;47.246;9.648;2023-07-02T10:37:12;23.80;99.90
15386;DHT22;7791;47.246;9.648;2023-07-02T10:39:43;24.10;99.90
15386;DHT22;7791;47.246;9.648;2023-07-02T10:42:22;24.70;99.90
15386;DHT22;7791;47.246;9.648;2023-07-02T10:45:03;24.80;99.90
15386;DHT22;7791;47.246;9.648;2023-07-02T10:47:49;24.60;99.90
15386;DHT22;7791;47.246;9.648;2023-07-02T10:50:26;25.00;99.90
15386;DHT22;7791;47.246;9.648;2023-07-02T10:52:59;25.50;99.90
15386;DHT22;7791;47.246;9.648;2023-07-02T10:55:52;26.40;99.90
15386;DHT22;7791;47.246;9.648;2023-07-02T10:58:29;26.50;99.90
15386;DHT22;7791;47.246;9.648;2023-07-02T11:04:24;26.40;99.90
15386;DHT22;7791;47.246;9.648;2023-07-02T11:06:55;26.10;99.90
15386;DHT22;7791;47.246;9.648;2023-07-02T11:12:22;25.00;99.90
15386;DHT22;7791;47.246;9.648;2023-07-02T11:15:12;25.50;99.90
15386;DHT22;7791;47.246;9.648;2023-07-02T11:17:51;25.60;99.90
15386;DHT22;7791;47.246;9.648;2023-07-02T11:23:46;25.30;99.90
15386;DHT22;7791;47.246;9.648;2023-07-02T11:26:16;24.80;99.90
15386;DHT22;7791;47.246;9.648;2023-07-02T11:29:06;24.30;99.90
15386;DHT22;7791;47.246;9.648;2023-07-02T11:34:38;24.20;99.90
15386;DHT22;7791;47.246;9.648;2023-07-02T11:40:21;24.60;99.90
15386;DHT22;7791;47.246;9.648;2023-07-02T11:42:59;25.10;99.90
15386;DHT22;7791;47.246;9.648;2023-07-02T11:45:37;24.60;99.90
15386;DHT22;7791;47.246;9.648;2023-07-02T11:48:09;24.40;99.90
15386;DHT22;7791;47.246;9.648;2023-07-02T11:50:51;24.40;99.90
15386;DHT22;7791;47.246;9.648;2023-07-02T11:53:21;24.60;99.90
15386;DHT22;7791;47.246;9.648;2023-07-02T11:56:02;24.50;99.90
15386;DHT22;7791;47.246;9.648;2023-07-02T11:58:45;24.30;99.90
15386;DHT22;7791;47.246;9.648;2023-07-02T12:01:26;25.00;99.90
15386;DHT22;7791;47.246;9.648;2023-07-02T12:06:47;25.10;99.90
15386;DHT22;7791;47.246;9.648;2023-07-02T12:09:26;25.40;99.90
15386;DHT22;7791;47.246;9.648;2023-07-02T12:12:23;25.70;99.90
15386;DHT22;7791;47.246;9.648;2023-07-02T12:15:03;25.70;99.90
15386;DHT22;7791;47.246;9.648;2023-07-02T12:20:40;25.80;99.90
15386;DHT22;7791;47.246;9.648;2023-07-02T12:23:12;26.20;99.90
15386;DHT22;7791;47.246;9.648;2023-07-02T12:25:49;25.70;99.90
15386;DHT22;7791;47.246;9.648;2023-07-02T12:28:26;25.70;99.90
15386;DHT22;7791;47.246;9.648;2023-07-02T12:31:10;25.60;99.90
15386;DHT22;7791;47.246;9.648;2023-07-02T12:36:39;25.80;99.90
15386;DHT22;7791;47.246;9.648;2023-07-02T12:39:21;26.20;99.90
15386;DHT22;7791;47.246;9.648;2023-07-02T12:42:02;27.60;99.90
15386;DHT22;7791;47.246;9.648;2023-07-02T12:44:51;28.70;97.40
15386;DHT22;7791;47.246;9.648;2023-07-02T12:47:36;29.20;97.50
15386;DHT22;7791;47.246;9.648;2023-07-02T12:50:02;29.50;96.90
15386;DHT22;7791;47.246;9.648;2023-07-02T12:52:38;30.20;97.30
15386;DHT22;7791;47.246;9.648;2023-07-02T12:55:08;29.20;95.10
15386;DHT22;7791;47.246;9.648;2023-07-02T13:00:43;27.90;96.30
15386;DHT22;7791;47.246;9.648;2023-07-02T13:06:01;27.10;97.30
15386;DHT22;7791;47.246;9.648;2023-07-02T13:08:43;26.50;99.20
15386;DHT22;7791;47.246;9.648;2023-07-02T13:14:09;27.40;98.70
15386;DHT22;7791;47.246;9.648;2023-07-02T13:16:50;28.40;98.00
15386;DHT22;7791;47.246;9.648;2023-07-02T13:19:20;28.60;97.40
15386;DHT22;7791;47.246;9.648;2023-07-02T13:21:45;27.70;96.40
15386;DHT22;7791;47.246;9.648;2023-07-02T13:24:11;27.10;97.20
15386;DHT22;7791;47.246;9.648;2023-07-02T13:26:52;26.50;99.40
15386;DHT22;7791;47.246;9.648;2023-07-02T13:35:08;27.40;97.00
15386;DHT22;7791;47.246;9.648;2023-07-02T13:37:49;28.00;96.70
15386;DHT22;7791;47.246;9.648;2023-07-02T13:43:21;28.40;95.40
15386;DHT22;7791;47.246;9.648;2023-07-02T13:45:58;28.10;96.00
15386;DHT22;7791;47.246;9.648;2023-07-02T13:48:48;27.80;95.80
15386;DHT22;7791;47.246;9.648;2023-07-02T13:51:26;27.30;97.80
15386;DHT22;7791;47.246;9.648;2023-07-02T13:54:12;26.90;98.10
15386;DHT22;7791;47.246;9.648;2023-07-02T13:56:55;27.00;98.20
15386;DHT22;7791;47.246;9.648;2023-07-02T13:59:37;27.00;97.70
15386;DHT22;7791;47.246;9.648;2023-07-02T14:02:13;27.40;97.90
15386;DHT22;7791;47.246;9.648;2023-07-02T14:04:48;28.10;98.70
15386;DHT22;7791;47.246;9.648;2023-07-02T14:10:20;29.60;94.10
15386;DHT22;7791;47.246;9.648;2023-07-02T14:13:07;31.10;93.50
15386;DHT22;7791;47.246;9.648;2023-07-02T14:15:44;31.80;92.00
15386;DHT22;7791;47.246;9.648;2023-07-02T14:18:27;31.20;91.10
15386;DHT22;7791;47.246;9.648;2023-07-02T14:20:56;30.50;92.20
15386;DHT22;7791;47.246;9.648;2023-07-02T14:23:26;29.30;93.20
15386;DHT22;7791;47.246;9.648;2023-07-02T14:26:01;28.60;94.40
15386;DHT22;7791;47.246;9.648;2023-07-02T14:28:47;27.60;94.60
15386;DHT22;7791;47.246;9.648;2023-07-02T14:34:15;27.40;95.70
15386;DHT22;7791;47.246;9.648;2023-07-02T14:36:52;26.40;96.30
15386;DHT22;7791;47.246;9.648;2023-07-02T14:42:13;25.50;96.70
15386;DHT22;7791;47.246;9.648;2023-07-02T14:47:38;25.90;97.50
15386;DHT22;7791;47.246;9.648;2023-07-02T14:50:11;26.20;96.80
15386;DHT22;7791;47.246;9.648;2023-07-02T14:52:47;26.90;97.50
15386;DHT22;7791;47.246;9.648;2023-07-02T14:55:23;27.40;94.40
15386;DHT22;7791;47.246;9.648;2023-07-02T14:58:09;27.20;94.30
15386;DHT22;7791;47.246;9.648;2023-07-02T15:01:06;27.10;94.10
15386;DHT22;7791;47.246;9.648;2023-07-02T15:03:48;26.90;94.50
15386;DHT22;7791;47.246;9.648;2023-07-02T15:06:30;27.50;94.70
15386;DHT22;7791;47.246;9.648;2023-07-02T15:09:09;28.30;94.50
15386;DHT22;7791;47.246;9.648;2023-07-02T15:11:47;28.80;93.00
15386;DHT22;7791;47.246;9.648;2023-07-02T15:14:34;28.70;92.10
15386;DHT22;7791;47.246;9.648;2023-07-02T15:17:11;28.00;92.90
15386;DHT22;7791;47.246;9.648;2023-07-02T15:22:40;27.20;94.50
15386;DHT22;7791;47.246;9.648;2023-07-02T15:25:12;26.60;94.30
15386;DHT22;7791;47.246;9.648;2023-07-02T15:27:48;26.70;95.00
15386;DHT22;7791;47.246;9.648;2023-07-02T15:30:32;27.30;93.60
15386;DHT22;7791;47.246;9.648;2023-07-02T15:33:01;27.60;94.10
15386;DHT22;7791;47.246;9.648;2023-07-02T15:35:38;27.50;93.80
15386;DHT22;7791;47.246;9.648;2023-07-02T15:38:20;27.40;94.70
15386;DHT22;7791;47.246;9.648;2023-07-02T15:43:50;25.40;95.80
15386;DHT22;7791;47.246;9.648;2023-07-02T15:46:29;25.20;96.50
15386;DHT22;7791;47.246;9.648;2023-07-02T15:49:03;25.10;96.70
15386;DHT22;7791;47.246;9.648;2023-07-02T15:51:44;25.00;97.90
15386;DHT22;7791;47.246;9.648;2023-07-02T15:54:28;25.00;97.30
15386;DHT22;7791;47.246;9.648;2023-07-02T15:57:09;25.10;97.60
15386;DHT22;7791;47.246;9.648;2023-07-02T15:59:51;25.70;97.50
15386;DHT22;7791;47.246;9.648;2023-07-02T16:03:01;25.70;96.80
15386;DHT22;7791;47.246;9.648;2023-07-02T16:05:40;26.10;96.80
15386;DHT22;7791;47.246;9.648;2023-07-02T16:08:26;26.20;96.90
15386;DHT22;7791;47.246;9.648;2023-07-02T16:10:59;25.80;96.40
15386;DHT22;7791;47.246;9.648;2023-07-02T16:13:40;25.80;95.50
15386;DHT22;7791;47.246;9.648;2023-07-02T16:16:13;26.10;95.90
15386;DHT22;7791;47.246;9.648;2023-07-02T16:19:02;26.80;94.40
15386;DHT22;7791;47.246;9.648;2023-07-02T16:21:43;28.00;94.50
15386;DHT22;7791;47.246;9.648;2023-07-02T16:24:24;29.20;92.10
15386;DHT22;7791;47.246;9.648;2023-07-02T16:27:05;30.00;89.60
15386;DHT22;7791;47.246;9.648;2023-07-02T16:29:45;30.50;88.70
15386;DHT22;7791;47.246;9.648;2023-07-02T16:32:21;31.10;86.40
15386;DHT22;7791;47.246;9.648;2023-07-02T16:35:01;30.70;89.50
15386;DHT22;7791;47.246;9.648;2023-07-02T16:40:33;28.00;93.00
15386;DHT22;7791;47.246;9.648;2023-07-02T16:43:17;27.50;93.50
15386;DHT22;7791;47.246;9.648;2023-07-02T16:46:11;27.40;93.80
15386;DHT22;7791;47.246;9.648;2023-07-02T16:48:48;27.10;95.20
15386;DHT22;7791;47.246;9.648;2023-07-02T16:51:28;27.00;96.70
15386;DHT22;7791;47.246;9.648;2023-07-02T16:54:02;26.90;96.90
15386;DHT22;7791;47.246;9.648;2023-07-02T16:56:29;26.60;98.70
15386;DHT22;7791;47.246;9.648;2023-07-02T16:58:55;26.40;98.60
15386;DHT22;7791;47.246;9.648;2023-07-02T17:04:28;25.20;98.60
15386;DHT22;7791;47.246;9.648;2023-07-02T17:07:15;25.10;99.00
15386;DHT22;7791;47.246;9.648;2023-07-02T17:10:18;24.80;99.30
15386;DHT22;7791;47.246;9.648;2023-07-02T17:12:48;24.50;98.40
15386;DHT22;7791;47.246;9.648;2023-07-02T17:15:21;24.40;98.20
15386;DHT22;7791;47.246;9.648;2023-07-02T17:17:57;24.20;98.90
15386;DHT22;7791;47.246;9.648;2023-07-02T17:20:35;24.20;99.60
15386;DHT22;7791;47.246;9.648;2023-07-02T17:23:14;24.30;99.90
15386;DHT22;7791;47.246;9.648;2023-07-02T17:26:03;24.20;99.90
15386;DHT22;7791;47.246;9.648;2023-07-02T17:28:48;24.00;99.90
15386;DHT22;7791;47.246;9.648;2023-07-02T17:31:34;23.90;99.90
15386;DHT22;7791;47.246;9.648;2023-07-02T17:34:18;23.90;99.90
15386;DHT22;7791;47.246;9.648;2023-07-02T17:37:01;23.80;99.90
15386;DHT22;7791;47.246;9.648;2023-07-02T17:42:33;23.50;99.90
15386;DHT22;7791;47.246;9.648;2023-07-02T17:48:33;23.40;99.90
15386;DHT22;7791;47.246;9.648;2023-07-02T17:51:17;23.10;99.90
15386;DHT22;7791;47.246;9.648;2023-07-02T17:53:51;23.10;99.90
15386;DHT22;7791;47.246;9.648;2023-07-02T17:56:51;23.10;99.90
15386;DHT22;7791;47.246;9.648;2023-07-02T17:59:20;22.90;99.90
15386;DHT22;7791;47.246;9.648;2023-07-02T18:01:56;22.80;99.90
15386;DHT22;7791;47.246;9.648;2023-07-02T18:04:48;22.70;99.90
15386;DHT22;7791;47.246;9.648;2023-07-02T18:10:14;22.60;99.90
15386;DHT22;7791;47.246;9.648;2023-07-02T18:12:55;22.60;99.90
15386;DHT22;7791;47.246;9.648;2023-07-02T18:18:47;22.60;99.90
15386;DHT22;7791;47.246;9.648;2023-07-02T18:21:19;22.50;99.90
15386;DHT22;7791;47.246;9.648;2023-07-02T18:23:51;22.40;99.90
15386;DHT22;7791;47.246;9.648;2023-07-02T18:29:16;22.40;99.90
15386;DHT22;7791;47.246;9.648;2023-07-02T18:31:52;22.30;99.90
15386;DHT22;7791;47.246;9.648;2023-07-02T18:34:36;22.30;99.90
15386;DHT22;7791;47.246;9.648;2023-07-02T18:37:17;22.30;99.90
15386;DHT22;7791;47.246;9.648;2023-07-02T18:39:53;22.20;99.90
15386;DHT22;7791;47.246;9.648;2023-07-02T18:42:31;22.10;99.90
15386;DHT22;7791;47.246;9.648;2023-07-02T18:45:04;21.90;99.90
15386;DHT22;7791;47.246;9.648;2023-07-02T18:47:40;21.90;99.90
15386;DHT22;7791;47.246;9.648;2023-07-02T18:50:17;21.80;99.90
15386;DHT22;7791;47.246;9.648;2023-07-02T18:52:51;21.80;99.90
15386;DHT22;7791;47.246;9.648;2023-07-02T18:58:15;21.80;99.90
15386;DHT22;7791;47.246;9.648;2023-07-02T19:00:48;21.90;99.90
15386;DHT22;7791;47.246;9.648;2023-07-02T19:03:23;21.90;99.90
15386;DHT22;7791;47.246;9.648;2023-07-02T19:06:16;21.90;99.90
15386;DHT22;7791;47.246;9.648;2023-07-02T19:08:50;22.00;99.90
15386;DHT22;7791;47.246;9.648;2023-07-02T19:14:03;21.90;99.90
15386;DHT22;7791;47.246;9.648;2023-07-02T19:16:53;21.90;99.90
15386;DHT22;7791;47.246;9.648;2023-07-02T19:19:29;21.90;99.90
15386;DHT22;7791;47.246;9.648;2023-07-02T19:22:03;22.00;99.90